sensor_id;sensor_type;location;lat;lon;timestamp;P1;durP1;ratioP1;P2;durP2;ratioP2
22318;SDS011;11327;52.334;9.506;2023-11-18T00:01:39;24.92;;;17.35;;
22318;SDS011;11327;52.334;9.506;2023-11-18T00:05:01;24.75;;;16.75;;
22318;SDS011;11327;52.334;9.506;2023-11-18T00:08:21;22.90;;;16.65;;
22318;SDS011;11327;52.334;9.506;2023-11-18T00:11:42;22.17;;;16.07;;
22318;SDS011;11327;52.334;9.506;2023-11-18T00:15:04;21.15;;;15.93;;
22318;SDS011;11327;52.334;9.506;2023-11-18T00:18:25;23.98;;;16.55;;
22318;SDS011;11327;52.334;9.506;2023-11-18T00:21:46;23.12;;;16.65;;
22318;SDS011;11327;52.334;9.506;2023-11-18T00:25:07;23.60;;;16.48;;
22318;SDS011;11327;52.334;9.506;2023-11-18T00:28:29;24.57;;;16.87;;
22318;SDS011;11327;52.334;9.506;2023-11-18T00:31:50;26.37;;;18.35;;
22318;SDS011;11327;52.334;9.506;2023-11-18T00:35:10;27.58;;;18.55;;
22318;SDS011;11327;52.334;9.506;2023-11-18T00:38:31;26.10;;;17.90;;
22318;SDS011;11327;52.334;9.506;2023-11-18T00:41:53;23.45;;;17.45;;
22318;SDS011;11327;52.334;9.506;2023-11-18T00:45:14;27.02;;;17.60;;
22318;SDS011;11327;52.334;9.506;2023-11-18T00:48:34;22.73;;;16.62;;
22318;SDS011;11327;52.334;9.506;2023-11-18T00:51:55;23.38;;;17.15;;
22318;SDS011;11327;52.334;9.506;2023-11-18T00:55:16;26.07;;;17.45;;
22318;SDS011;11327;52.334;9.506;2023-11-18T00:58:40;24.15;;;17.00;;
22318;SDS011;11327;52.334;9.506;2023-11-18T01:02:01;24.77;;;18.10;;
22318;SDS011;11327;52.334;9.506;2023-11-18T01:05:23;24.70;;;17.92;;
22318;SDS011;11327;52.334;9.506;2023-11-18T01:08:44;27.20;;;20.08;;
22318;SDS011;11327;52.334;9.506;2023-11-18T01:12:06;28.57;;;19.17;;
22318;SDS011;11327;52.334;9.506;2023-11-18T01:15:28;28.55;;;19.95;;
22318;SDS011;11327;52.334;9.506;2023-11-18T01:18:51;28.00;;;19.70;;
22318;SDS011;11327;52.334;9.506;2023-11-18T01:22:12;25.02;;;18.00;;
22318;SDS011;11327;52.334;9.506;2023-11-18T01:25:33;25.05;;;18.25;;
22318;SDS011;11327;52.334;9.506;2023-11-18T01:28:54;28.87;;;19.70;;
22318;SDS011;11327;52.334;9.506;2023-11-18T01:32:16;28.65;;;19.20;;
22318;SDS011;11327;52.334;9.506;2023-11-18T01:35:37;28.50;;;19.30;;
22318;SDS011;11327;52.334;9.506;2023-11-18T01:38:59;29.12;;;19.85;;
22318;SDS011;11327;52.334;9.506;2023-11-18T01:42:20;28.73;;;19.75;;
22318;SDS011;11327;52.334;9.506;2023-11-18T01:45:41;28.32;;;19.90;;
22318;SDS011;11327;52.334;9.506;2023-11-18T01:49:02;29.57;;;19.87;;
22318;SDS011;11327;52.334;9.506;2023-11-18T01:52:24;30.30;;;20.27;;
22318;SDS011;11327;52.334;9.506;2023-11-18T01:55:45;30.57;;;20.30;;
22318;SDS011;11327;52.334;9.506;2023-11-18T01:59:06;29.90;;;20.15;;
22318;SDS011;11327;52.334;9.506;2023-11-18T02:02:29;31.68;;;21.25;;
22318;SDS011;11327;52.334;9.506;2023-11-18T02:05:49;33.28;;;22.00;;
22318;SDS011;11327;52.334;9.506;2023-11-18T02:09:12;30.70;;;20.97;;
22318;SDS011;11327;52.334;9.506;2023-11-18T02:12:48;31.35;;;22.30;;
22318;SDS011;11327;52.334;9.506;2023-11-18T02:16:10;30.15;;;20.43;;
22318;SDS011;11327;52.334;9.506;2023-11-18T02:19:31;31.82;;;21.17;;
22318;SDS011;11327;52.334;9.506;2023-11-18T02:22:55;29.18;;;20.68;;
22318;SDS011;11327;52.334;9.506;2023-11-18T02:26:22;30.70;;;20.23;;
22318;SDS011;11327;52.334;9.506;2023-11-18T02:29:44;29.92;;;19.70;;
22318;SDS011;11327;52.334;9.506;2023-11-18T02:33:27;25.90;;;18.67;;
22318;SDS011;11327;52.334;9.506;2023-11-18T02:36:44;27.30;;;18.62;;
22318;SDS011;11327;52.334;9.506;2023-11-18T02:43:32;29.15;;;19.65;;
22318;SDS011;11327;52.334;9.506;2023-11-18T02:46:53;29.75;;;20.08;;
22318;SDS011;11327;52.334;9.506;2023-11-18T02:50:14;27.82;;;19.87;;
22318;SDS011;11327;52.334;9.506;2023-11-18T02:53:35;29.92;;;19.98;;
22318;SDS011;11327;52.334;9.506;2023-11-18T02:56:56;29.92;;;20.60;;
22318;SDS011;11327;52.334;9.506;2023-11-18T03:00:17;29.70;;;20.72;;
22318;SDS011;11327;52.334;9.506;2023-11-18T03:03:44;35.28;;;22.37;;
22318;SDS011;11327;52.334;9.506;2023-11-18T03:07:05;31.68;;;22.13;;
22318;SDS011;11327;52.334;9.506;2023-11-18T03:10:26;29.65;;;21.15;;
22318;SDS011;11327;52.334;9.506;2023-11-18T03:13:47;33.53;;;22.25;;
22318;SDS011;11327;52.334;9.506;2023-11-18T03:17:08;29.67;;;20.95;;
22318;SDS011;11327;52.334;9.506;2023-11-18T03:20:30;31.75;;;21.25;;
22318;SDS011;11327;52.334;9.506;2023-11-18T03:23:50;34.33;;;23.27;;
22318;SDS011;11327;52.334;9.506;2023-11-18T03:27:11;34.98;;;22.67;;
22318;SDS011;11327;52.334;9.506;2023-11-18T03:30:32;37.45;;;24.87;;
22318;SDS011;11327;52.334;9.506;2023-11-18T03:33:53;35.10;;;23.95;;
22318;SDS011;11327;52.334;9.506;2023-11-18T03:37:14;35.05;;;23.47;;
22318;SDS011;11327;52.334;9.506;2023-11-18T03:40:35;36.35;;;23.85;;
22318;SDS011;11327;52.334;9.506;2023-11-18T03:43:55;34.18;;;22.85;;
22318;SDS011;11327;52.334;9.506;2023-11-18T03:47:16;34.58;;;23.07;;
22318;SDS011;11327;52.334;9.506;2023-11-18T03:50:37;34.95;;;24.00;;
22318;SDS011;11327;52.334;9.506;2023-11-18T03:53:57;35.90;;;23.95;;
22318;SDS011;11327;52.334;9.506;2023-11-18T03:57:18;34.13;;;23.12;;
22318;SDS011;11327;52.334;9.506;2023-11-18T04:00:39;35.63;;;23.27;;
22318;SDS011;11327;52.334;9.506;2023-11-18T04:04:00;32.50;;;22.95;;
22318;SDS011;11327;52.334;9.506;2023-11-18T04:07:21;32.98;;;22.77;;
22318;SDS011;11327;52.334;9.506;2023-11-18T04:10:42;37.65;;;24.47;;
22318;SDS011;11327;52.334;9.506;2023-11-18T04:14:03;36.30;;;24.75;;
22318;SDS011;11327;52.334;9.506;2023-11-18T04:17:24;33.75;;;23.98;;
22318;SDS011;11327;52.334;9.506;2023-11-18T04:20:46;38.15;;;24.15;;
22318;SDS011;11327;52.334;9.506;2023-11-18T04:24:07;35.63;;;24.35;;
22318;SDS011;11327;52.334;9.506;2023-11-18T04:27:29;36.80;;;24.75;;
22318;SDS011;11327;52.334;9.506;2023-11-18T04:30:50;35.90;;;24.20;;
22318;SDS011;11327;52.334;9.506;2023-11-18T04:34:10;36.80;;;24.32;;
22318;SDS011;11327;52.334;9.506;2023-11-18T04:37:31;39.10;;;25.48;;
22318;SDS011;11327;52.334;9.506;2023-11-18T04:40:52;40.45;;;25.50;;
22318;SDS011;11327;52.334;9.506;2023-11-18T04:44:14;40.40;;;25.75;;
22318;SDS011;11327;52.334;9.506;2023-11-18T04:47:36;41.40;;;26.07;;
22318;SDS011;11327;52.334;9.506;2023-11-18T04:50:58;37.78;;;25.10;;
22318;SDS011;11327;52.334;9.506;2023-11-18T04:54:19;37.80;;;24.75;;
22318;SDS011;11327;52.334;9.506;2023-11-18T04:57:40;40.60;;;26.37;;
22318;SDS011;11327;52.334;9.506;2023-11-18T05:01:00;45.20;;;27.32;;
22318;SDS011;11327;52.334;9.506;2023-11-18T05:04:21;44.18;;;27.45;;
22318;SDS011;11327;52.334;9.506;2023-11-18T05:07:42;43.63;;;26.73;;
22318;SDS011;11327;52.334;9.506;2023-11-18T05:11:03;44.95;;;27.17;;
22318;SDS011;11327;52.334;9.506;2023-11-18T05:14:27;43.58;;;26.40;;
22318;SDS011;11327;52.334;9.506;2023-11-18T05:17:49;45.25;;;27.10;;
22318;SDS011;11327;52.334;9.506;2023-11-18T05:21:09;46.63;;;25.97;;
22318;SDS011;11327;52.334;9.506;2023-11-18T05:24:31;43.90;;;26.25;;
22318;SDS011;11327;52.334;9.506;2023-11-18T05:27:52;43.25;;;25.48;;
22318;SDS011;11327;52.334;9.506;2023-11-18T05:31:13;43.10;;;25.05;;
22318;SDS011;11327;52.334;9.506;2023-11-18T05:34:33;42.33;;;25.48;;
22318;SDS011;11327;52.334;9.506;2023-11-18T05:37:55;40.90;;;24.40;;
22318;SDS011;11327;52.334;9.506;2023-11-18T05:41:16;40.17;;;23.83;;
22318;SDS011;11327;52.334;9.506;2023-11-18T05:44:39;40.88;;;24.18;;
22318;SDS011;11327;52.334;9.506;2023-11-18T05:47:59;41.08;;;24.27;;
22318;SDS011;11327;52.334;9.506;2023-11-18T05:51:21;39.35;;;23.45;;
22318;SDS011;11327;52.334;9.506;2023-11-18T05:54:44;41.13;;;23.45;;
22318;SDS011;11327;52.334;9.506;2023-11-18T05:58:04;35.65;;;22.70;;
22318;SDS011;11327;52.334;9.506;2023-11-18T06:01:25;37.63;;;21.45;;
22318;SDS011;11327;52.334;9.506;2023-11-18T06:04:49;38.13;;;22.67;;
22318;SDS011;11327;52.334;9.506;2023-11-18T06:08:09;36.20;;;21.30;;
22318;SDS011;11327;52.334;9.506;2023-11-18T06:11:31;36.35;;;21.52;;
22318;SDS011;11327;52.334;9.506;2023-11-18T06:14:52;36.70;;;22.05;;
22318;SDS011;11327;52.334;9.506;2023-11-18T06:18:12;39.00;;;21.90;;
22318;SDS011;11327;52.334;9.506;2023-11-18T06:21:34;37.25;;;21.87;;
22318;SDS011;11327;52.334;9.506;2023-11-18T06:24:54;37.78;;;21.30;;
22318;SDS011;11327;52.334;9.506;2023-11-18T06:28:15;37.80;;;21.57;;
22318;SDS011;11327;52.334;9.506;2023-11-18T06:31:37;39.03;;;22.07;;
22318;SDS011;11327;52.334;9.506;2023-11-18T06:34:57;33.55;;;19.07;;
22318;SDS011;11327;52.334;9.506;2023-11-18T06:38:18;36.28;;;20.20;;
22318;SDS011;11327;52.334;9.506;2023-11-18T06:41:39;35.60;;;21.30;;
22318;SDS011;11327;52.334;9.506;2023-11-18T06:45:02;36.77;;;20.85;;
22318;SDS011;11327;52.334;9.506;2023-11-18T06:48:23;36.35;;;21.17;;
22318;SDS011;11327;52.334;9.506;2023-11-18T06:51:43;35.63;;;20.02;;
22318;SDS011;11327;52.334;9.506;2023-11-18T06:55:04;33.28;;;20.15;;
22318;SDS011;11327;52.334;9.506;2023-11-18T06:58:25;36.68;;;19.98;;
22318;SDS011;11327;52.334;9.506;2023-11-18T07:01:47;34.43;;;20.40;;
22318;SDS011;11327;52.334;9.506;2023-11-18T07:05:08;39.13;;;22.00;;
22318;SDS011;11327;52.334;9.506;2023-11-18T07:08:29;38.02;;;20.75;;
22318;SDS011;11327;52.334;9.506;2023-11-18T07:11:49;39.10;;;21.07;;
22318;SDS011;11327;52.334;9.506;2023-11-18T07:15:11;35.08;;;19.55;;
22318;SDS011;11327;52.334;9.506;2023-11-18T07:18:32;39.60;;;20.80;;
22318;SDS011;11327;52.334;9.506;2023-11-18T07:21:53;40.55;;;21.33;;
22318;SDS011;11327;52.334;9.506;2023-11-18T07:25:14;38.78;;;21.52;;
22318;SDS011;11327;52.334;9.506;2023-11-18T07:28:34;41.20;;;22.55;;
22318;SDS011;11327;52.334;9.506;2023-11-18T07:31:56;41.05;;;21.57;;
22318;SDS011;11327;52.334;9.506;2023-11-18T07:35:17;40.20;;;22.27;;
22318;SDS011;11327;52.334;9.506;2023-11-18T07:38:38;41.65;;;21.00;;
22318;SDS011;11327;52.334;9.506;2023-11-18T07:42:00;40.92;;;21.73;;
22318;SDS011;11327;52.334;9.506;2023-11-18T07:45:20;41.28;;;21.95;;
22318;SDS011;11327;52.334;9.506;2023-11-18T07:48:41;41.92;;;22.75;;
22318;SDS011;11327;52.334;9.506;2023-11-18T07:52:02;43.58;;;21.57;;
22318;SDS011;11327;52.334;9.506;2023-11-18T07:55:23;39.80;;;20.65;;
22318;SDS011;11327;52.334;9.506;2023-11-18T07:58:44;41.75;;;21.82;;
22318;SDS011;11327;52.334;9.506;2023-11-18T08:02:08;41.13;;;21.55;;
22318;SDS011;11327;52.334;9.506;2023-11-18T08:05:29;44.77;;;21.95;;
22318;SDS011;11327;52.334;9.506;2023-11-18T08:08:52;43.78;;;22.55;;
22318;SDS011;11327;52.334;9.506;2023-11-18T08:12:14;45.33;;;22.10;;
22318;SDS011;11327;52.334;9.506;2023-11-18T08:15:37;47.08;;;23.05;;
22318;SDS011;11327;52.334;9.506;2023-11-18T08:19:02;50.12;;;24.52;;
22318;SDS011;11327;52.334;9.506;2023-11-18T08:22:23;53.00;;;25.50;;
22318;SDS011;11327;52.334;9.506;2023-11-18T08:25:47;64.42;;;28.35;;
22318;SDS011;11327;52.334;9.506;2023-11-18T08:29:08;58.58;;;26.73;;
22318;SDS011;11327;52.334;9.506;2023-11-18T08:32:29;63.30;;;28.40;;
22318;SDS011;11327;52.334;9.506;2023-11-18T08:35:50;63.23;;;26.75;;
22318;SDS011;11327;52.334;9.506;2023-11-18T08:39:11;61.65;;;27.27;;
22318;SDS011;11327;52.334;9.506;2023-11-18T08:42:34;58.95;;;26.95;;
22318;SDS011;11327;52.334;9.506;2023-11-18T08:45:56;67.65;;;28.10;;
22318;SDS011;11327;52.334;9.506;2023-11-18T08:49:16;62.93;;;26.85;;
22318;SDS011;11327;52.334;9.506;2023-11-18T08:52:39;63.75;;;27.55;;
22318;SDS011;11327;52.334;9.506;2023-11-18T08:56:03;67.27;;;28.20;;
22318;SDS011;11327;52.334;9.506;2023-11-18T08:59:26;61.10;;;27.00;;
22318;SDS011;11327;52.334;9.506;2023-11-18T09:02:46;59.18;;;26.30;;
22318;SDS011;11327;52.334;9.506;2023-11-18T09:06:07;61.10;;;27.17;;
22318;SDS011;11327;52.334;9.506;2023-11-18T09:09:37;62.50;;;25.92;;
22318;SDS011;11327;52.334;9.506;2023-11-18T09:13:00;55.05;;;27.13;;
22318;SDS011;11327;52.334;9.506;2023-11-18T09:16:20;56.13;;;25.27;;
22318;SDS011;11327;52.334;9.506;2023-11-18T09:19:46;54.40;;;24.52;;
22318;SDS011;11327;52.334;9.506;2023-11-18T09:23:07;53.68;;;24.18;;
22318;SDS011;11327;52.334;9.506;2023-11-18T09:26:28;54.18;;;23.73;;
22318;SDS011;11327;52.334;9.506;2023-11-18T09:29:50;50.28;;;23.27;;
22318;SDS011;11327;52.334;9.506;2023-11-18T09:33:11;52.98;;;24.35;;
22318;SDS011;11327;52.334;9.506;2023-11-18T09:36:33;49.98;;;22.25;;
22318;SDS011;11327;52.334;9.506;2023-11-18T09:39:54;52.93;;;24.05;;
22318;SDS011;11327;52.334;9.506;2023-11-18T09:43:17;50.38;;;21.80;;
22318;SDS011;11327;52.334;9.506;2023-11-18T09:46:40;47.33;;;21.48;;
22318;SDS011;11327;52.334;9.506;2023-11-18T09:50:02;43.45;;;20.50;;
22318;SDS011;11327;52.334;9.506;2023-11-18T09:53:25;42.38;;;19.25;;
22318;SDS011;11327;52.334;9.506;2023-11-18T10:00:16;41.83;;;20.30;;
22318;SDS011;11327;52.334;9.506;2023-11-18T10:07:06;34.03;;;16.32;;
22318;SDS011;11327;52.334;9.506;2023-11-18T10:10:31;33.15;;;16.15;;
22318;SDS011;11327;52.334;9.506;2023-11-18T10:13:58;33.48;;;15.80;;
22318;SDS011;11327;52.334;9.506;2023-11-18T10:17:21;27.62;;;14.20;;
22318;SDS011;11327;52.334;9.506;2023-11-18T10:20:45;30.37;;;14.70;;
22318;SDS011;11327;52.334;9.506;2023-11-18T10:24:07;29.85;;;15.28;;
22318;SDS011;11327;52.334;9.506;2023-11-18T10:27:30;25.97;;;13.45;;
22318;SDS011;11327;52.334;9.506;2023-11-18T10:30:52;25.65;;;13.30;;
22318;SDS011;11327;52.334;9.506;2023-11-18T10:34:13;24.57;;;12.58;;
22318;SDS011;11327;52.334;9.506;2023-11-18T10:37:36;24.05;;;12.70;;
22318;SDS011;11327;52.334;9.506;2023-11-18T10:40:59;26.80;;;13.25;;
22318;SDS011;11327;52.334;9.506;2023-11-18T10:44:22;25.90;;;13.45;;
22318;SDS011;11327;52.334;9.506;2023-11-18T10:47:44;26.25;;;13.38;;
22318;SDS011;11327;52.334;9.506;2023-11-18T10:51:08;29.10;;;12.95;;
22318;SDS011;11327;52.334;9.506;2023-11-18T10:54:30;24.23;;;12.88;;
22318;SDS011;11327;52.334;9.506;2023-11-18T10:57:52;23.77;;;12.43;;
22318;SDS011;11327;52.334;9.506;2023-11-18T11:01:13;27.67;;;13.70;;
22318;SDS011;11327;52.334;9.506;2023-11-18T11:04:42;26.52;;;13.72;;
22318;SDS011;11327;52.334;9.506;2023-11-18T11:08:02;23.85;;;12.78;;
22318;SDS011;11327;52.334;9.506;2023-11-18T11:11:26;23.42;;;13.20;;
22318;SDS011;11327;52.334;9.506;2023-11-18T11:14:59;27.58;;;14.18;;
22318;SDS011;11327;52.334;9.506;2023-11-18T11:18:23;24.07;;;13.17;;
22318;SDS011;11327;52.334;9.506;2023-11-18T11:21:50;26.40;;;12.98;;
22318;SDS011;11327;52.334;9.506;2023-11-18T11:25:19;21.87;;;12.20;;
22318;SDS011;11327;52.334;9.506;2023-11-18T11:28:48;17.40;;;10.90;;
22318;SDS011;11327;52.334;9.506;2023-11-18T11:32:22;18.57;;;10.63;;
22318;SDS011;11327;52.334;9.506;2023-11-18T11:35:40;17.12;;;9.48;;
22318;SDS011;11327;52.334;9.506;2023-11-18T11:39:06;15.83;;;9.18;;
22318;SDS011;11327;52.334;9.506;2023-11-18T11:42:33;15.78;;;9.38;;
22318;SDS011;11327;52.334;9.506;2023-11-18T11:45:55;15.75;;;9.68;;
22318;SDS011;11327;52.334;9.506;2023-11-18T11:49:16;18.90;;;10.40;;
22318;SDS011;11327;52.334;9.506;2023-11-18T11:52:44;17.17;;;10.20;;
22318;SDS011;11327;52.334;9.506;2023-11-18T11:56:07;17.35;;;10.35;;
22318;SDS011;11327;52.334;9.506;2023-11-18T11:59:34;16.17;;;9.65;;
22318;SDS011;11327;52.334;9.506;2023-11-18T12:02:57;17.48;;;10.13;;
22318;SDS011;11327;52.334;9.506;2023-11-18T12:06:27;19.10;;;10.68;;
22318;SDS011;11327;52.334;9.506;2023-11-18T12:09:47;17.60;;;10.63;;
22318;SDS011;11327;52.334;9.506;2023-11-18T12:13:10;18.27;;;10.50;;
22318;SDS011;11327;52.334;9.506;2023-11-18T12:20:40;11.70;;;7.92;;
22318;SDS011;11327;52.334;9.506;2023-11-18T12:24:15;10.35;;;7.30;;
22318;SDS011;11327;52.334;9.506;2023-11-18T12:27:41;10.45;;;6.50;;
22318;SDS011;11327;52.334;9.506;2023-11-18T12:31:06;11.08;;;6.35;;
22318;SDS011;11327;52.334;9.506;2023-11-18T12:42:04;12.90;;;7.25;;
22318;SDS011;11327;52.334;9.506;2023-11-18T12:45:55;11.78;;;7.72;;
22318;SDS011;11327;52.334;9.506;2023-11-18T12:49:14;12.10;;;7.65;;
22318;SDS011;11327;52.334;9.506;2023-11-18T12:52:36;13.68;;;7.78;;
22318;SDS011;11327;52.334;9.506;2023-11-18T12:55:56;12.35;;;7.75;;
22318;SDS011;11327;52.334;9.506;2023-11-18T12:59:19;11.63;;;7.95;;
22318;SDS011;11327;52.334;9.506;2023-11-18T13:02:42;10.88;;;7.80;;
22318;SDS011;11327;52.334;9.506;2023-11-18T13:06:03;10.10;;;7.60;;
22318;SDS011;11327;52.334;9.506;2023-11-18T13:09:26;10.28;;;7.17;;
22318;SDS011;11327;52.334;9.506;2023-11-18T13:12:56;11.43;;;7.80;;
22318;SDS011;11327;52.334;9.506;2023-11-18T13:16:15;13.60;;;8.48;;
22318;SDS011;11327;52.334;9.506;2023-11-18T13:19:35;9.28;;;6.35;;
22318;SDS011;11327;52.334;9.506;2023-11-18T13:22:56;10.05;;;7.05;;
22318;SDS011;11327;52.334;9.506;2023-11-18T13:26:17;9.58;;;6.83;;
22318;SDS011;11327;52.334;9.506;2023-11-18T13:29:42;12.05;;;7.08;;
22318;SDS011;11327;52.334;9.506;2023-11-18T13:33:08;9.78;;;6.80;;
22318;SDS011;11327;52.334;9.506;2023-11-18T13:36:29;10.78;;;7.20;;
22318;SDS011;11327;52.334;9.506;2023-11-18T13:39:55;9.28;;;6.25;;
22318;SDS011;11327;52.334;9.506;2023-11-18T13:43:16;9.75;;;7.17;;
22318;SDS011;11327;52.334;9.506;2023-11-18T13:46:38;10.68;;;6.58;;
22318;SDS011;11327;52.334;9.506;2023-11-18T13:50:00;10.03;;;6.12;;
22318;SDS011;11327;52.334;9.506;2023-11-18T13:53:21;11.50;;;7.37;;
22318;SDS011;11327;52.334;9.506;2023-11-18T13:56:41;12.03;;;7.40;;
22318;SDS011;11327;52.334;9.506;2023-11-18T14:00:02;13.13;;;8.53;;
22318;SDS011;11327;52.334;9.506;2023-11-18T14:03:25;11.90;;;7.80;;
22318;SDS011;11327;52.334;9.506;2023-11-18T14:06:50;13.25;;;8.40;;
22318;SDS011;11327;52.334;9.506;2023-11-18T14:10:15;13.08;;;8.15;;
22318;SDS011;11327;52.334;9.506;2023-11-18T14:13:38;13.88;;;8.50;;
22318;SDS011;11327;52.334;9.506;2023-11-18T14:16:58;16.40;;;9.80;;
22318;SDS011;11327;52.334;9.506;2023-11-18T14:20:19;15.68;;;9.65;;
22318;SDS011;11327;52.334;9.506;2023-11-18T14:23:42;14.05;;;10.30;;
22318;SDS011;11327;52.334;9.506;2023-11-18T14:27:02;16.05;;;9.68;;
22318;SDS011;11327;52.334;9.506;2023-11-18T14:30:25;15.95;;;9.58;;
22318;SDS011;11327;52.334;9.506;2023-11-18T14:33:46;11.88;;;8.10;;
22318;SDS011;11327;52.334;9.506;2023-11-18T14:37:06;12.47;;;7.90;;
22318;SDS011;11327;52.334;9.506;2023-11-18T14:40:27;11.25;;;7.53;;
22318;SDS011;11327;52.334;9.506;2023-11-18T14:43:48;14.75;;;8.85;;
22318;SDS011;11327;52.334;9.506;2023-11-18T14:47:09;12.58;;;8.83;;
22318;SDS011;11327;52.334;9.506;2023-11-18T14:50:31;10.93;;;7.80;;
22318;SDS011;11327;52.334;9.506;2023-11-18T14:53:52;11.50;;;7.80;;
22318;SDS011;11327;52.334;9.506;2023-11-18T14:57:14;13.35;;;7.90;;
22318;SDS011;11327;52.334;9.506;2023-11-18T15:00:35;10.10;;;7.75;;
22318;SDS011;11327;52.334;9.506;2023-11-18T15:03:56;10.13;;;7.50;;
22318;SDS011;11327;52.334;9.506;2023-11-18T15:07:17;13.28;;;8.68;;
22318;SDS011;11327;52.334;9.506;2023-11-18T15:10:39;12.47;;;8.75;;
22318;SDS011;11327;52.334;9.506;2023-11-18T15:14:02;12.33;;;8.10;;
22318;SDS011;11327;52.334;9.506;2023-11-18T15:17:23;12.03;;;8.28;;
22318;SDS011;11327;52.334;9.506;2023-11-18T15:20:46;11.22;;;8.35;;
22318;SDS011;11327;52.334;9.506;2023-11-18T15:24:07;13.35;;;9.28;;
22318;SDS011;11327;52.334;9.506;2023-11-18T15:27:29;11.28;;;8.53;;
22318;SDS011;11327;52.334;9.506;2023-11-18T15:30:51;12.25;;;8.05;;
22318;SDS011;11327;52.334;9.506;2023-11-18T15:34:12;13.88;;;8.50;;
22318;SDS011;11327;52.334;9.506;2023-11-18T15:37:33;27.60;;;17.65;;
22318;SDS011;11327;52.334;9.506;2023-11-18T15:40:53;23.40;;;15.90;;
22318;SDS011;11327;52.334;9.506;2023-11-18T15:44:14;14.00;;;9.20;;
22318;SDS011;11327;52.334;9.506;2023-11-18T15:47:37;16.55;;;11.00;;
22318;SDS011;11327;52.334;9.506;2023-11-18T15:50:59;13.85;;;9.30;;
22318;SDS011;11327;52.334;9.506;2023-11-18T15:54:19;13.28;;;9.03;;
22318;SDS011;11327;52.334;9.506;2023-11-18T15:57:41;13.13;;;7.72;;
22318;SDS011;11327;52.334;9.506;2023-11-18T16:01:02;12.15;;;7.97;;
22318;SDS011;11327;52.334;9.506;2023-11-18T16:04:23;12.55;;;8.88;;
22318;SDS011;11327;52.334;9.506;2023-11-18T16:07:44;12.45;;;8.53;;
22318;SDS011;11327;52.334;9.506;2023-11-18T16:11:06;11.95;;;8.50;;
22318;SDS011;11327;52.334;9.506;2023-11-18T16:14:26;11.60;;;7.95;;
22318;SDS011;11327;52.334;9.506;2023-11-18T16:17:50;11.80;;;8.05;;
22318;SDS011;11327;52.334;9.506;2023-11-18T16:21:12;9.58;;;6.83;;
22318;SDS011;11327;52.334;9.506;2023-11-18T16:24:34;11.55;;;7.65;;
22318;SDS011;11327;52.334;9.506;2023-11-18T16:27:56;9.13;;;6.35;;
22318;SDS011;11327;52.334;9.506;2023-11-18T16:31:19;8.88;;;6.33;;
22318;SDS011;11327;52.334;9.506;2023-11-18T16:34:39;7.90;;;5.60;;
22318;SDS011;11327;52.334;9.506;2023-11-18T16:38:00;8.65;;;5.75;;
22318;SDS011;11327;52.334;9.506;2023-11-18T16:41:21;10.68;;;7.25;;
22318;SDS011;11327;52.334;9.506;2023-11-18T16:44:42;9.13;;;6.12;;
22318;SDS011;11327;52.334;9.506;2023-11-18T16:48:02;9.90;;;6.17;;
22318;SDS011;11327;52.334;9.506;2023-11-18T16:51:24;9.28;;;6.15;;
22318;SDS011;11327;52.334;9.506;2023-11-18T16:54:45;9.48;;;6.28;;
22318;SDS011;11327;52.334;9.506;2023-11-18T16:58:06;9.90;;;6.97;;
22318;SDS011;11327;52.334;9.506;2023-11-18T17:01:27;9.00;;;5.90;;
22318;SDS011;11327;52.334;9.506;2023-11-18T17:04:49;8.50;;;5.40;;
22318;SDS011;11327;52.334;9.506;2023-11-18T17:08:09;7.65;;;5.83;;
22318;SDS011;11327;52.334;9.506;2023-11-18T17:11:30;7.03;;;4.95;;
22318;SDS011;11327;52.334;9.506;2023-11-18T17:14:51;8.18;;;5.67;;
22318;SDS011;11327;52.334;9.506;2023-11-18T17:18:12;7.20;;;5.20;;
22318;SDS011;11327;52.334;9.506;2023-11-18T17:21:34;6.85;;;4.70;;
22318;SDS011;11327;52.334;9.506;2023-11-18T17:24:55;6.83;;;4.65;;
22318;SDS011;11327;52.334;9.506;2023-11-18T17:28:15;6.75;;;4.83;;
22318;SDS011;11327;52.334;9.506;2023-11-18T17:31:38;11.97;;;8.80;;
22318;SDS011;11327;52.334;9.506;2023-11-18T17:34:58;9.10;;;6.15;;
22318;SDS011;11327;52.334;9.506;2023-11-18T17:38:22;8.88;;;6.22;;
22318;SDS011;11327;52.334;9.506;2023-11-18T17:41:42;8.60;;;6.20;;
22318;SDS011;11327;52.334;9.506;2023-11-18T17:45:06;10.78;;;6.70;;
22318;SDS011;11327;52.334;9.506;2023-11-18T17:48:28;9.98;;;7.00;;
22318;SDS011;11327;52.334;9.506;2023-11-18T17:51:48;10.63;;;7.20;;
22318;SDS011;11327;52.334;9.506;2023-11-18T17:55:09;13.32;;;8.48;;
22318;SDS011;11327;52.334;9.506;2023-11-18T17:58:32;13.70;;;8.73;;
22318;SDS011;11327;52.334;9.506;2023-11-18T18:01:53;13.62;;;8.98;;
22318;SDS011;11327;52.334;9.506;2023-11-18T18:05:14;12.70;;;9.00;;
22318;SDS011;11327;52.334;9.506;2023-11-18T18:08:35;9.93;;;6.45;;
22318;SDS011;11327;52.334;9.506;2023-11-18T18:11:56;7.33;;;5.35;;
22318;SDS011;11327;52.334;9.506;2023-11-18T18:15:16;8.85;;;5.92;;
22318;SDS011;11327;52.334;9.506;2023-11-18T18:18:37;9.85;;;7.17;;
22318;SDS011;11327;52.334;9.506;2023-11-18T18:21:58;11.38;;;7.72;;
22318;SDS011;11327;52.334;9.506;2023-11-18T18:25:18;11.53;;;8.48;;
22318;SDS011;11327;52.334;9.506;2023-11-18T18:28:39;13.75;;;8.88;;
22318;SDS011;11327;52.334;9.506;2023-11-18T18:32:00;13.70;;;8.70;;
22318;SDS011;11327;52.334;9.506;2023-11-18T18:35:21;13.53;;;9.15;;
22318;SDS011;11327;52.334;9.506;2023-11-18T18:38:41;14.23;;;9.58;;
22318;SDS011;11327;52.334;9.506;2023-11-18T18:42:03;14.33;;;9.20;;
22318;SDS011;11327;52.334;9.506;2023-11-18T18:45:24;12.95;;;8.95;;
22318;SDS011;11327;52.334;9.506;2023-11-18T18:48:44;14.00;;;9.05;;
22318;SDS011;11327;52.334;9.506;2023-11-18T18:52:05;15.88;;;10.68;;
22318;SDS011;11327;52.334;9.506;2023-11-18T18:55:26;13.40;;;9.28;;
22318;SDS011;11327;52.334;9.506;2023-11-18T18:58:47;12.55;;;8.03;;
22318;SDS011;11327;52.334;9.506;2023-11-18T19:02:08;10.80;;;6.58;;
22318;SDS011;11327;52.334;9.506;2023-11-18T19:05:30;10.05;;;6.20;;
22318;SDS011;11327;52.334;9.506;2023-11-18T19:08:51;10.82;;;7.33;;
22318;SDS011;11327;52.334;9.506;2023-11-18T19:12:11;8.93;;;5.55;;
22318;SDS011;11327;52.334;9.506;2023-11-18T19:15:32;7.45;;;5.60;;
22318;SDS011;11327;52.334;9.506;2023-11-18T19:18:53;6.75;;;5.05;;
22318;SDS011;11327;52.334;9.506;2023-11-18T19:22:17;9.50;;;7.87;;
22318;SDS011;11327;52.334;9.506;2023-11-18T19:25:38;8.83;;;7.22;;
22318;SDS011;11327;52.334;9.506;2023-11-18T19:28:58;7.37;;;6.28;;
22318;SDS011;11327;52.334;9.506;2023-11-18T19:32:19;7.42;;;6.40;;
22318;SDS011;11327;52.334;9.506;2023-11-18T19:35:40;7.67;;;6.58;;
22318;SDS011;11327;52.334;9.506;2023-11-18T19:41:45;5.95;;;4.90;;
22318;SDS011;11327;52.334;9.506;2023-11-18T19:45:06;7.45;;;5.50;;
22318;SDS011;11327;52.334;9.506;2023-11-18T19:48:28;6.08;;;5.10;;
22318;SDS011;11327;52.334;9.506;2023-11-18T19:51:51;9.38;;;7.37;;
22318;SDS011;11327;52.334;9.506;2023-11-18T19:55:13;6.78;;;5.35;;
22318;SDS011;11327;52.334;9.506;2023-11-18T19:58:35;4.45;;;3.20;;
22318;SDS011;11327;52.334;9.506;2023-11-18T20:01:56;4.20;;;3.35;;
22318;SDS011;11327;52.334;9.506;2023-11-18T20:05:18;3.52;;;3.02;;
22318;SDS011;11327;52.334;9.506;2023-11-18T20:08:39;5.97;;;3.80;;
22318;SDS011;11327;52.334;9.506;2023-11-18T20:12:00;2.83;;;2.50;;
22318;SDS011;11327;52.334;9.506;2023-11-18T20:15:21;4.33;;;2.80;;